Time;durP1;ratioP1;P1;durP2;ratioP2;P2;SDS_P1;SDS_P2;PMS_P1;PMS_P2;Temp;Humidity;BMP_temperature;BMP_pressure;BME280_temperature;BME280_humidity;BME280_pressure;Samples;Min_cycle;Max_cycle;Signal;HPM_P1;HPM_P2
2022/04/26 03:37:34;;;;;;;57.67;26.87;;;4.70;99.90;;;;;;4105706;28;20447;-76
2022/04/26 03:39:36;;;;;;;70.30;30.40;;;4.70;99.90;;;;;;4137963;28;20470;-75
2022/04/26 03:41:38;;;;;;;61.90;29.93;;;4.70;99.90;;;;;;4144052;28;20512;-75
2022/04/26 03:43:40;;;;;;;66.43;29.50;;;4.70;99.90;;;;;;4139626;28;20515;-81
2022/04/26 03:45:41;;;;;;;64.53;30.20;;;4.70;99.90;;;;;;4134531;28;20464;-75
2022/04/26 03:47:43;;;;;;;63.90;29.27;;;4.70;99.90;;;;;;4133612;28;20836;-76
2022/04/26 03:49:46;;;;;;;65.27;30.37;;;4.70;99.90;;;;;;4134648;28;20495;-78
2022/04/26 03:51:48;;;;;;;63.60;30.37;;;4.70;99.90;;;;;;4140441;28;20483;-74
2022/04/26 03:53:50;;;;;;;68.00;30.80;;;4.70;99.90;;;;;;4136402;28;20988;-74
2022/04/26 03:55:51;;;;;;;64.67;30.03;;;4.70;99.90;;;;;;4132847;28;20537;-76
2022/04/26 03:57:53;;;;;;;71.90;31.20;;;4.60;99.90;;;;;;4138368;28;20952;-79
2022/04/26 03:59:55;;;;;;;73.70;32.87;;;4.60;99.90;;;;;;4138157;28;20890;-74
2022/04/26 04:01:57;;;;;;;75.60;33.57;;;4.60;99.90;;;;;;4140107;28;21008;-74
2022/04/26 04:03:58;;;;;;;72.70;31.53;;;4.70;99.90;;;;;;4138776;28;20470;-75
2022/04/26 04:06:01;;;;;;;74.43;32.40;;;4.70;99.90;;;;;;4138716;28;20463;-74
2022/04/26 04:08:03;;;;;;;71.47;31.13;;;4.60;99.90;;;;;;4137798;28;20824;-74
2022/04/26 04:10:06;;;;;;;72.93;32.77;;;4.60;99.90;;;;;;4140070;28;20494;-74
2022/04/26 04:12:09;;;;;;;74.03;32.33;;;4.60;99.90;;;;;;4138558;28;20507;-76
2022/04/26 04:14:11;;;;;;;71.63;30.97;;;4.60;99.90;;;;;;4132880;28;20464;-76
2022/04/26 04:16:13;;;;;;;67.13;30.73;;;4.60;99.90;;;;;;4132077;28;20510;-75
2022/04/26 04:20:30;;;;;;;70.73;32.17;;;4.50;99.90;;;;;;4139445;28;20462;-75
2022/04/26 04:22:33;;;;;;;69.50;31.30;;;4.50;99.90;;;;;;4140986;28;20538;-78
2022/04/26 04:24:35;;;;;;;67.67;30.97;;;4.50;99.90;;;;;;4138053;28;20796;-75
2022/04/26 04:26:37;;;;;;;68.33;31.20;;;4.50;99.90;;;;;;4142320;28;20514;-80
2022/04/26 04:28:39;;;;;;;69.93;30.13;;;4.50;99.90;;;;;;4142596;28;20498;-75
2022/04/26 04:30:41;;;;;;;68.13;30.83;;;4.50;99.90;;;;;;4137387;28;20549;-76
2022/04/26 04:32:43;;;;;;;65.73;29.50;;;4.50;99.90;;;;;;4137453;28;20487;-75
2022/04/26 04:34:46;;;;;;;64.30;29.10;;;4.50;99.90;;;;;;4137076;28;20463;-75
2022/04/26 04:36:47;;;;;;;69.80;30.17;;;4.50;99.90;;;;;;4137218;28;20490;-74
2022/04/26 04:38:50;;;;;;;61.97;29.63;;;4.50;99.90;;;;;;4137507;28;20467;-78
2022/04/26 04:40:52;;;;;;;74.23;30.67;;;4.50;99.90;;;;;;4132448;28;20475;-75
2022/04/26 04:42:54;;;;;;;73.80;31.90;;;4.50;99.90;;;;;;4139571;28;20940;-75
2022/04/26 04:44:56;;;;;;;70.83;32.17;;;4.50;99.90;;;;;;4134928;28;20514;-74
2022/04/26 04:47:00;;;;;;;72.70;32.83;;;4.50;99.90;;;;;;4140394;28;20522;-74
2022/04/26 04:49:02;;;;;;;66.47;30.63;;;4.50;99.90;;;;;;4135068;28;20491;-74
2022/04/26 04:51:04;;;;;;;73.67;32.07;;;4.50;99.90;;;;;;4138261;28;20517;-75
2022/04/26 04:53:06;;;;;;;69.27;30.37;;;4.60;99.90;;;;;;4135143;28;20513;-74
2022/04/26 04:55:09;;;;;;;67.67;31.13;;;4.60;99.90;;;;;;4138047;28;21027;-78
2022/04/26 04:57:11;;;;;;;77.23;31.20;;;4.60;99.90;;;;;;4138863;28;20521;-76
2022/04/26 04:59:13;;;;;;;69.10;30.03;;;4.60;99.90;;;;;;4133494;28;20502;-74
2022/04/26 05:01:14;;;;;;;67.63;30.87;;;4.60;99.90;;;;;;4136606;28;20553;-75
2022/04/26 05:03:16;;;;;;;74.57;31.40;;;4.60;99.90;;;;;;4134646;28;20907;-74
2022/04/26 05:05:18;;;;;;;69.60;29.93;;;4.60;99.90;;;;;;4136803;28;21014;-75
2022/04/26 05:07:20;;;;;;;78.30;35.10;;;4.60;99.90;;;;;;4138807;28;20956;-75
2022/04/26 05:09:22;;;;;;;87.67;37.80;;;4.70;99.90;;;;;;4139129;28;20496;-75
2022/04/26 05:11:25;;;;;;;97.70;42.13;;;4.70;99.90;;;;;;4130386;28;20542;-74
2022/04/26 05:13:27;;;;;;;104.57;42.63;;;4.70;99.90;;;;;;4138994;28;20447;-75
2022/04/26 05:15:29;;;;;;;86.53;37.93;;;4.70;99.90;;;;;;4134842;28;20502;-75
2022/04/26 05:17:31;;;;;;;83.60;36.17;;;4.80;99.90;;;;;;4136675;28;21003;-74
2022/04/26 05:19:32;;;;;;;76.43;34.03;;;4.80;99.90;;;;;;4137217;28;20472;-74
2022/04/26 05:21:34;;;;;;;73.57;32.60;;;4.80;99.90;;;;;;4132197;28;20483;-74
2022/04/26 05:25:55;;;;;;;67.13;30.40;;;4.80;99.90;;;;;;4140270;28;21022;-75
2022/04/26 05:27:58;;;;;;;69.27;31.27;;;4.90;99.90;;;;;;4137191;28;20479;-74
2022/04/26 05:30:00;;;;;;;66.73;30.33;;;4.80;99.90;;;;;;4131896;28;20498;-77
2022/04/26 05:32:02;;;;;;;65.53;30.47;;;4.90;99.90;;;;;;4134690;28;20549;-76
2022/04/26 05:34:04;;;;;;;68.93;30.70;;;4.90;99.90;;;;;;4132011;28;20938;-75
2022/04/26 05:36:06;;;;;;;65.13;31.37;;;5.00;99.90;;;;;;4129839;28;20514;-74
2022/04/26 05:38:07;;;;;;;70.10;30.20;;;5.00;99.90;;;;;;4128098;28;20543;-74
2022/04/26 05:40:10;;;;;;;66.23;30.43;;;5.10;99.90;;;;;;4130373;28;20518;-76
2022/04/26 05:42:12;;;;;;;69.60;30.77;;;5.10;99.90;;;;;;4131021;28;20479;-74
2022/04/26 05:44:15;;;;;;;66.53;30.37;;;5.10;99.90;;;;;;4138487;28;20513;-75
2022/04/26 05:46:17;;;;;;;63.47;29.83;;;5.10;99.90;;;;;;4132975;28;20462;-77
2022/04/26 05:48:19;;;;;;;66.67;29.77;;;5.10;99.90;;;;;;4137187;28;20458;-75
2022/04/26 05:50:20;;;;;;;66.10;30.00;;;5.20;99.90;;;;;;4135027;28;20558;-73
2022/04/26 05:52:24;;;;;;;73.00;32.67;;;5.20;99.90;;;;;;4136448;28;20525;-73
2022/04/26 05:54:26;;;;;;;72.80;30.97;;;5.20;99.90;;;;;;4135636;28;21051;-77
2022/04/26 05:56:27;;;;;;;72.10;32.30;;;5.30;99.90;;;;;;4133923;28;20460;-75
2022/04/26 05:58:29;;;;;;;74.03;32.10;;;5.40;99.90;;;;;;4130627;28;20472;-77
2022/04/26 06:00:32;;;;;;;74.13;32.53;;;5.50;99.90;;;;;;4129807;28;20957;-79
2022/04/26 06:02:34;;;;;;;69.50;31.63;;;5.50;99.90;;;;;;4133821;28;20467;-76
2022/04/26 06:04:37;;;;;;;77.43;34.17;;;5.50;99.90;;;;;;4138338;28;20475;-77
2022/04/26 06:06:41;;;;;;;74.23;31.97;;;5.60;99.90;;;;;;4131721;28;20451;-79
2022/04/26 06:08:45;;;;;;;66.93;30.93;;;5.60;99.90;;;;;;4130771;28;21061;-78
2022/04/26 06:10:50;;;;;;;76.97;34.07;;;5.60;99.90;;;;;;4131655;28;20535;-85
2022/04/26 06:12:52;;;;;;;74.50;33.47;;;5.70;99.90;;;;;;4135871;28;20545;-80
2022/04/26 06:14:54;;;;;;;74.20;33.67;;;5.70;99.90;;;;;;4139482;28;20452;-82
2022/04/26 06:16:57;;;;;;;71.47;32.03;;;5.70;99.90;;;;;;4137611;28;20459;-82
2022/04/26 06:18:59;;;;;;;71.10;32.10;;;5.80;99.90;;;;;;4136301;28;21055;-81
2022/04/26 06:21:01;;;;;;;72.03;31.87;;;5.80;99.90;;;;;;4132483;28;20609;-79
2022/04/26 06:23:05;;;;;;;71.40;32.10;;;5.80;99.90;;;;;;4139128;28;20468;-79
2022/04/26 06:25:07;;;;;;;76.40;32.33;;;5.90;99.90;;;;;;4140531;28;20533;-78
2022/04/26 06:27:09;;;;;;;71.13;32.93;;;5.90;99.90;;;;;;4123908;28;21018;-79
2022/04/26 06:29:11;;;;;;;76.47;34.00;;;5.90;99.90;;;;;;4140572;28;20455;-78
2022/04/26 06:31:12;;;;;;;74.97;32.03;;;6.00;99.90;;;;;;4135853;28;20475;-78
2022/04/26 06:33:17;;;;;;;69.47;32.43;;;6.20;99.90;;;;;;4139441;28;20464;-78
2022/04/26 06:35:19;;;;;;;69.20;32.00;;;6.20;99.90;;;;;;4134146;28;20480;-79
2022/04/26 06:37:23;;;;;;;74.13;34.27;;;6.20;99.90;;;;;;4138974;28;21078;-79
2022/04/26 06:39:24;;;;;;;70.33;33.03;;;6.20;99.90;;;;;;4142255;28;20465;-79
2022/04/26 06:41:26;;;;;;;73.13;33.33;;;6.30;99.90;;;;;;4140728;28;20508;-79
2022/04/26 06:43:32;;;;;;;76.47;33.97;;;6.30;99.90;;;;;;4134415;28;20471;-79
2022/04/26 06:45:34;;;;;;;70.13;32.83;;;6.40;99.90;;;;;;4137777;28;20539;-79
2022/04/26 06:47:36;;;;;;;78.47;32.73;;;6.40;99.90;;;;;;4136444;28;20471;-79
2022/04/26 06:49:39;;;;;;;69.67;32.43;;;6.50;99.90;;;;;;4136599;28;20488;-79
2022/04/26 06:51:43;;;;;;;69.03;31.47;;;6.50;99.90;;;;;;4130183;28;20532;-78
2022/04/26 06:53:45;;;;;;;71.00;32.83;;;6.60;99.90;;;;;;4145359;28;20882;-79
2022/04/26 06:55:47;;;;;;;76.90;33.93;;;6.60;99.90;;;;;;4135445;28;20472;-79
2022/04/26 06:57:49;;;;;;;75.43;34.20;;;6.70;99.90;;;;;;4135356;28;20472;-78
2022/04/26 06:59:51;;;;;;;71.93;32.80;;;6.80;99.90;;;;;;4139203;28;20467;-79
2022/04/26 07:01:54;;;;;;;67.07;31.43;;;6.80;99.90;;;;;;4142719;28;20488;-80
2022/04/26 07:03:56;;;;;;;68.73;32.47;;;6.90;99.90;;;;;;4142551;28;20472;-79
2022/04/26 07:05:59;;;;;;;73.00;33.07;;;6.90;99.90;;;;;;4141004;28;20514;-79
2022/04/26 07:08:01;;;;;;;79.00;33.17;;;7.00;99.90;;;;;;4136516;28;20470;-79
2022/04/26 07:10:03;;;;;;;70.03;32.53;;;7.00;99.90;;;;;;4138757;28;20533;-80
2022/04/26 07:12:07;;;;;;;70.53;32.73;;;7.10;99.90;;;;;;4136017;28;20501;-80
2022/04/26 07:14:08;;;;;;;71.30;32.83;;;7.20;99.90;;;;;;4136034;28;20469;-80
2022/04/26 07:16:10;;;;;;;70.33;32.63;;;7.20;99.90;;;;;;4133847;28;20481;-79
2022/04/26 07:18:13;;;;;;;67.10;31.53;;;7.30;99.90;;;;;;4137165;28;20538;-79
2022/04/26 07:20:14;;;;;;;69.33;32.77;;;7.30;99.90;;;;;;4139218;28;20863;-80
2022/04/26 07:22:18;;;;;;;68.40;32.30;;;7.40;99.90;;;;;;4133186;28;20498;-80
2022/04/26 07:24:19;;;;;;;66.30;31.67;;;7.40;99.90;;;;;;4141123;28;20822;-80
2022/04/26 07:26:21;;;;;;;64.93;31.03;;;7.70;99.90;;;;;;4131829;28;20476;-79
2022/04/26 07:28:23;;;;;;;65.10;31.67;;;7.50;99.90;;;;;;4134834;28;20521;-81
2022/04/26 07:30:32;;;;;;;70.53;31.70;;;7.60;99.90;;;;;;4137442;28;21082;-80
2022/04/26 07:34:53;;;;;;;69.77;32.93;;;7.70;99.90;;;;;;4110224;28;20438;-80
2022/04/26 07:36:59;;;;;;;65.30;30.90;;;7.70;99.90;;;;;;4132994;28;20510;-80
2022/04/26 07:39:02;;;;;;;66.87;31.03;;;7.80;99.90;;;;;;4133916;28;20493;-80
2022/04/26 07:41:03;;;;;;;65.30;32.13;;;7.80;99.90;;;;;;4129744;28;20531;-80
2022/04/26 07:43:06;;;;;;;63.90;30.67;;;7.90;99.90;;;;;;4133417;28;20446;-81
2022/04/26 07:45:12;;;;;;;59.10;30.00;;;8.00;99.90;;;;;;4128546;28;20571;-80
2022/04/26 07:47:13;;;;;;;60.67;29.33;;;8.00;99.90;;;;;;4138718;28;20469;-81
2022/04/26 07:49:17;;;;;;;64.40;29.93;;;8.10;99.90;;;;;;4133318;28;20466;-81
2022/04/26 07:51:19;;;;;;;61.40;30.47;;;8.30;99.90;;;;;;4137153;28;21018;-80
2022/04/26 07:53:21;;;;;;;61.27;28.67;;;8.30;99.90;;;;;;4136761;28;20462;-82
2022/04/26 07:55:24;;;;;;;62.77;29.40;;;8.30;99.90;;;;;;4137118;28;20478;-81
2022/04/26 07:57:26;;;;;;;58.23;28.47;;;8.40;99.90;;;;;;4139458;28;20473;-82
2022/04/26 07:59:28;;;;;;;56.23;27.77;;;8.50;99.90;;;;;;4136705;28;20462;-82
2022/04/26 08:01:31;;;;;;;54.13;26.50;;;8.50;99.90;;;;;;4137618;28;20495;-81
2022/04/26 08:03:33;;;;;;;56.77;28.07;;;8.60;99.90;;;;;;4138188;28;21053;-81
2022/04/26 08:05:35;;;;;;;47.53;25.33;;;8.60;99.90;;;;;;4137319;28;20466;-81
2022/04/26 08:07:39;;;;;;;53.37;24.70;;;8.70;99.90;;;;;;4138002;28;20467;-82
2022/04/26 08:09:43;;;;;;;53.40;26.50;;;8.80;99.90;;;;;;4128634;28;20996;-81
2022/04/26 08:11:46;;;;;;;46.13;24.70;;;8.80;99.90;;;;;;4133849;28;20597;-82
2022/04/26 08:13:48;;;;;;;49.40;27.07;;;8.90;99.90;;;;;;4130208;28;20498;-82
2022/04/26 08:15:50;;;;;;;42.70;22.70;;;9.10;99.90;;;;;;4133679;28;20247;-82
2022/04/26 08:17:52;;;;;;;49.07;24.57;;;9.10;99.90;;;;;;4137226;28;20463;-81
2022/04/26 08:19:54;;;;;;;42.53;22.80;;;9.40;99.90;;;;;;4138769;28;20464;-81
2022/04/26 08:21:55;;;;;;;45.03;23.20;;;9.70;99.90;;;;;;4141129;28;20232;-82
2022/04/26 08:28:36;;;;;;;39.63;21.03;;;9.50;99.90;;;;;;4112277;28;20488;-80
2022/04/26 08:30:39;;;;;;;38.07;20.80;;;9.60;99.90;;;;;;4144476;28;20620;-82
2022/04/26 08:32:42;;;;;;;37.73;20.40;;;9.80;99.90;;;;;;4144045;28;20252;-80
2022/04/26 08:34:44;;;;;;;40.00;21.13;;;9.70;99.90;;;;;;4143843;28;20456;-81
2022/04/26 08:36:46;;;;;;;42.40;21.97;;;9.80;99.90;;;;;;4141747;28;20236;-81
2022/04/26 08:38:48;;;;;;;33.97;18.17;;;9.90;99.90;;;;;;4136819;28;20303;-80
2022/04/26 08:40:50;;;;;;;32.13;17.60;;;10.00;99.90;;;;;;4138559;28;20291;-81
2022/04/26 08:42:52;;;;;;;34.70;18.10;;;10.10;99.90;;;;;;4133287;28;20241;-81
2022/04/26 08:44:58;;;;;;;31.10;16.90;;;10.20;99.90;;;;;;4140516;28;20219;-81
2022/04/26 08:51:38;;;;;;;26.87;14.50;;;10.70;99.90;;;;;;4138047;28;20803;-81
2022/04/26 08:53:40;;;;;;;24.73;13.77;;;10.60;99.90;;;;;;4140747;28;20311;-81
2022/04/26 08:55:43;;;;;;;20.27;12.10;;;10.80;99.90;;;;;;4137573;28;20213;-81
2022/04/26 08:57:45;;;;;;;19.63;11.53;;;10.90;99.90;;;;;;4137973;28;20703;-81
2022/04/26 08:59:48;;;;;;;17.87;10.63;;;10.90;99.90;;;;;;4135563;28;20295;-82
2022/04/26 09:01:52;;;;;;;17.47;9.87;;;11.10;99.90;;;;;;4141101;28;20234;-82
2022/04/26 09:03:56;;;;;;;16.27;9.37;;;11.20;99.90;;;;;;4139394;28;20257;-82
2022/04/26 09:06:04;;;;;;;14.57;8.40;;;11.40;99.90;;;;;;4145718;28;20222;-81
2022/04/26 09:08:22;;;;;;;11.47;7.37;;;11.50;99.90;;;;;;4132947;28;20651;-82
2022/04/26 09:10:24;;;;;;;10.10;6.20;;;11.70;99.90;;;;;;4136666;28;20943;-82
2022/04/26 09:12:26;;;;;;;9.70;5.80;;;11.80;99.90;;;;;;4213408;23;20776;-78
2022/04/26 09:14:34;;;;;;;8.93;5.47;;;11.90;99.90;;;;;;4155398;28;20214;-76
2022/04/26 09:16:36;;;;;;;11.17;6.60;;;12.10;99.90;;;;;;4152356;28;20221;-77
2022/04/26 09:18:55;;;;;;;14.30;7.20;;;12.20;99.90;;;;;;4151346;28;20249;-79
2022/04/26 09:20:59;;;;;;;11.47;7.60;;;12.40;99.90;;;;;;4155895;28;20744;-79
2022/04/26 09:23:01;;;;;;;11.43;6.43;;;12.50;99.90;;;;;;4156341;28;20759;-77
2022/04/26 09:25:05;;;;;;;10.70;6.00;;;12.60;99.90;;;;;;4153696;28;20276;-77
2022/04/26 09:27:16;;;;;;;10.10;6.47;;;12.70;99.90;;;;;;4156925;28;20536;-78
2022/04/26 09:29:19;;;;;;;11.10;6.53;;;12.90;99.90;;;;;;4146836;28;20227;-77
2022/04/26 09:31:23;;;;;;;10.23;7.00;;;12.90;99.90;;;;;;4147365;28;20234;-77
2022/04/26 09:33:38;;;;;;;11.30;6.67;;;13.00;99.90;;;;;;4157950;28;20228;-78
2022/04/26 09:35:41;;;;;;;10.97;7.20;;;13.10;99.90;;;;;;4150532;28;20222;-78
2022/04/26 09:37:44;;;;;;;11.87;6.90;;;13.20;99.90;;;;;;4153961;28;20715;-81
2022/04/26 09:40:00;;;;;;;10.97;6.33;;;13.30;99.90;;;;;;4151373;28;20226;-79
2022/04/26 09:42:02;;;;;;;12.30;7.97;;;13.40;99.90;;;;;;4155493;28;20270;-82
2022/04/26 09:44:06;;;;;;;12.70;8.40;;;13.60;99.90;;;;;;4159240;28;20269;-81
2022/04/26 09:46:08;;;;;;;14.80;8.50;;;13.70;99.90;;;;;;4157408;28;20219;-80
2022/04/26 09:48:10;;;;;;;13.80;8.40;;;13.70;99.90;;;;;;4159174;28;20215;-83
2022/04/26 09:50:14;;;;;;;11.70;7.03;;;13.80;99.90;;;;;;4152912;28;20212;-81
2022/04/26 09:52:18;;;;;;;9.00;6.10;;;13.90;99.90;;;;;;4152776;28;20235;-80
2022/04/26 09:54:20;;;;;;;9.67;5.87;;;14.00;99.90;;;;;;4149705;28;20219;-81
2022/04/26 09:56:25;;;;;;;12.03;5.90;;;14.10;99.90;;;;;;4155899;28;20207;-81
2022/04/26 09:58:28;;;;;;;10.73;6.27;;;14.10;99.90;;;;;;4156939;28;20215;-81
2022/04/26 10:00:31;;;;;;;12.80;6.87;;;14.20;99.90;;;;;;4149348;28;20338;-82
2022/04/26 10:02:33;;;;;;;12.30;7.37;;;14.30;99.90;;;;;;4154812;28;20247;-80
2022/04/26 10:04:45;;;;;;;12.80;7.07;;;14.50;99.90;;;;;;4149978;28;20593;-81
2022/04/26 10:06:51;;;;;;;10.50;6.73;;;14.60;99.90;;;;;;4149722;28;20730;-81
2022/04/26 10:08:55;;;;;;;10.70;6.40;;;14.70;99.90;;;;;;4154858;28;20215;-79
2022/04/26 10:11:00;;;;;;;13.87;7.30;;;14.80;99.90;;;;;;4143364;28;20445;-78
2022/04/26 10:15:22;;;;;;;12.23;7.20;;;15.10;98.50;;;;;;4154021;28;20212;-78
2022/04/26 10:17:23;;;;;;;11.83;7.10;;;15.30;98.30;;;;;;4146492;28;20217;-82
2022/04/26 10:19:37;;;;;;;13.47;7.77;;;15.40;99.90;;;;;;4147214;28;20232;-81
2022/04/26 10:21:49;;;;;;;11.00;7.53;;;15.50;94.50;;;;;;4154690;28;20261;-80
2022/04/26 10:24:15;;;;;;;11.33;6.83;;;15.60;95.10;;;;;;4153632;28;20545;-81
2022/04/26 10:26:23;;;;;;;12.30;7.60;;;15.70;94.30;;;;;;4148180;28;20209;-80
2022/04/26 10:28:26;;;;;;;12.07;8.13;;;15.80;92.80;;;;;;4150638;28;20289;-80
2022/04/26 10:30:49;;;;;;;10.17;7.00;;;15.80;90.10;;;;;;4153471;28;20215;-80
2022/04/26 10:32:51;;;;;;;12.10;6.20;;;15.90;81.20;;;;;;4156184;28;20243;-80
2022/04/26 10:34:53;;;;;;;11.93;6.60;;;16.00;79.30;;;;;;4153635;28;20742;-81
2022/04/26 10:36:55;;;;;;;10.97;5.80;;;16.10;75.20;;;;;;4152157;28;20210;-81
2022/04/26 10:39:27;;;;;;;9.57;5.87;;;16.10;67.30;;;;;;4153866;28;20223;-80
2022/04/26 10:41:35;;;;;;;8.57;5.87;;;16.20;75.80;;;;;;4140085;28;20208;-80
2022/04/26 10:43:38;;;;;;;8.00;5.73;;;16.30;68.60;;;;;;4151382;28;20223;-80
2022/04/26 10:46:09;;;;;;;10.10;5.67;;;16.50;62.00;;;;;;4151425;28;20217;-79
2022/04/26 10:48:26;;;;;;;8.40;5.23;;;16.60;61.70;;;;;;4152517;28;20219;-79
2022/04/26 10:50:32;;;;;;;8.40;4.43;;;16.70;60.60;;;;;;4147917;28;20222;-79
2022/04/26 10:52:45;;;;;;;7.63;4.83;;;16.90;58.40;;;;;;4145709;28;20365;-79
2022/04/26 10:55:05;;;;;;;6.37;3.77;;;17.00;58.30;;;;;;4145613;28;20250;-80
2022/04/26 10:57:07;;;;;;;7.37;4.07;;;17.20;60.80;;;;;;4152834;28;20487;-79
2022/04/26 10:59:13;;;;;;;6.27;4.33;;;17.40;55.20;;;;;;4152993;28;20224;-79
2022/04/26 11:01:15;;;;;;;7.60;4.00;;;17.50;52.50;;;;;;4150356;28;20240;-80
2022/04/26 11:03:18;;;;;;;5.67;3.70;;;17.70;54.40;;;;;;4150950;28;20691;-80
2022/04/26 11:05:25;;;;;;;6.63;4.20;;;17.80;50.90;;;;;;4152053;28;20230;-79
2022/04/26 11:07:28;;;;;;;4.87;3.60;;;17.80;50.40;;;;;;4149810;28;20219;-79
2022/04/26 11:09:31;;;;;;;8.87;3.63;;;17.80;51.40;;;;;;4153695;28;20233;-80
2022/04/26 11:11:48;;;;;;;5.60;3.63;;;17.90;48.80;;;;;;4145115;28;20770;-80
2022/04/26 11:13:50;;;;;;;9.60;3.93;;;18.00;49.30;;;;;;4143772;28;20310;-80
2022/04/26 11:16:07;;;;;;;5.73;3.60;;;18.00;48.50;;;;;;4149805;28;20221;-79
2022/04/26 11:18:19;;;;;;;6.17;3.83;;;18.10;49.70;;;;;;4148389;28;20356;-79
2022/04/26 11:20:24;;;;;;;8.93;5.00;;;18.20;48.00;;;;;;4151789;28;20224;-79
2022/04/26 11:22:27;;;;;;;10.23;4.87;;;18.20;45.40;;;;;;4150853;28;20321;-80
2022/04/26 11:29:20;;;;;;;6.40;4.40;;;18.30;44.80;;;;;;4155712;28;20224;-80
2022/04/26 11:31:22;;;;;;;6.80;4.00;;;18.50;46.10;;;;;;4151489;28;20242;-79
2022/04/26 11:33:27;;;;;;;8.37;4.00;;;18.50;45.70;;;;;;4153152;28;20230;-80
2022/04/26 11:35:34;;;;;;;7.37;4.20;;;18.70;45.80;;;;;;4156313;28;20284;-79
2022/04/26 11:37:43;;;;;;;6.37;4.13;;;18.70;45.10;;;;;;4157206;28;20247;-79
2022/04/26 11:39:45;;;;;;;7.67;4.70;;;18.70;45.50;;;;;;4150266;28;20269;-79
2022/04/26 11:41:49;;;;;;;9.10;5.83;;;18.80;46.70;;;;;;4158271;28;20295;-79
2022/04/26 11:44:05;;;;;;;8.23;5.83;;;18.80;47.40;;;;;;4155035;28;20218;-79
2022/04/26 11:46:08;;;;;;;8.63;5.47;;;18.80;46.50;;;;;;4157927;28;20217;-79
2022/04/26 11:48:12;;;;;;;6.87;4.90;;;18.70;46.40;;;;;;4154235;28;20209;-79
2022/04/26 11:50:16;;;;;;;7.27;4.90;;;18.70;46.30;;;;;;4149397;28;20706;-79
2022/04/26 11:52:23;;;;;;;8.93;5.23;;;18.70;46.00;;;;;;4155958;28;21973;-79
2022/04/26 11:54:37;;;;;;;8.53;4.93;;;18.70;46.90;;;;;;4152222;28;20587;-80
2022/04/26 11:56:43;;;;;;;6.93;4.40;;;18.80;46.50;;;;;;4158587;28;20213;-80
2022/04/26 11:58:45;;;;;;;6.77;4.43;;;18.70;46.20;;;;;;4160718;28;20229;-80
2022/04/26 12:40:11;;;;;;;6.33;3.40;;;23.90;37.50;;;;;;4152053;28;20265;-80
2022/04/26 12:42:15;;;;;;;5.57;3.47;;;24.80;35.60;;;;;;4154540;28;20240;-80
2022/04/26 12:44:17;;;;;;;5.07;3.70;;;25.70;34.20;;;;;;4154466;28;20246;-80
2022/04/26 12:46:19;;;;;;;4.50;3.10;;;26.50;33.10;;;;;;4154140;28;20525;-80
2022/04/26 12:50:39;;;;;;;4.50;3.10;;;28.00;29.90;;;;;;4157846;28;20226;-80
2022/04/26 12:52:42;;;;;;;3.78;2.60;;;28.60;29.00;;;;;;4182755;22;20614;-82
2022/04/26 12:54:55;;;;;;;3.75;3.03;;;29.00;28.20;;;;;;4172719;28;20228;-82
2022/04/26 12:57:00;;;;;;;4.38;2.80;;;29.50;27.20;;;;;;4172397;28;20288;-82
2022/04/26 12:59:02;;;;;;;5.03;3.08;;;29.90;26.80;;;;;;4176495;28;20667;-82
2022/04/26 13:01:05;;;;;;;4.22;2.75;;;30.30;26.70;;;;;;4170333;28;20589;-82
2022/04/26 13:03:07;;;;;;;3.33;2.80;;;30.80;26.70;;;;;;4152528;28;20240;-82
2022/04/26 13:05:09;;;;;;;6.30;3.25;;;31.20;26.00;;;;;;4152137;28;20762;-81
2022/04/26 13:07:11;;;;;;;4.90;3.00;;;31.60;25.90;;;;;;4153355;28;20215;-81
2022/04/26 13:09:13;;;;;;;3.92;2.85;;;32.00;25.80;;;;;;4155311;28;20222;-81
2022/04/26 13:11:18;;;;;;;3.17;2.58;;;32.40;24.20;;;;;;4155609;28;20238;-81
2022/04/26 13:13:21;;;;;;;3.03;2.65;;;32.50;23.40;;;;;;4154643;28;20250;-81
2022/04/26 13:15:24;;;;;;;3.13;2.40;;;32.60;23.50;;;;;;4155365;28;20226;-81
2022/04/26 13:17:26;;;;;;;2.67;2.35;;;32.80;23.00;;;;;;4155089;28;20735;-82
2022/04/26 13:19:28;;;;;;;2.80;2.30;;;33.20;23.10;;;;;;4157977;28;20767;-82
2022/04/26 13:21:29;;;;;;;3.05;2.10;;;33.50;22.90;;;;;;4151815;28;20299;-82
2022/04/26 13:23:34;;;;;;;5.45;2.45;;;33.80;22.50;;;;;;4158245;28;20648;-83
2022/04/26 13:25:35;;;;;;;2.15;1.90;;;34.10;22.70;;;;;;4146886;28;20278;-82
2022/04/26 13:27:38;;;;;;;3.28;1.77;;;34.40;21.80;;;;;;4152901;28;20289;-82
2022/04/26 13:29:41;;;;;;;2.42;1.88;;;34.70;21.30;;;;;;4150530;28;20219;-81
2022/04/26 13:31:43;;;;;;;3.45;2.10;;;34.80;21.60;;;;;;4150476;28;20250;-82
2022/04/26 13:33:45;;;;;;;3.30;2.15;;;35.00;21.60;;;;;;4157140;28;20215;-82
2022/04/26 13:35:48;;;;;;;5.40;2.50;;;35.30;21.50;;;;;;4157793;28;20273;-82
2022/04/26 13:37:52;;;;;;;3.15;2.00;;;35.40;21.70;;;;;;4155114;28;20226;-82
2022/04/26 13:39:54;;;;;;;2.47;2.28;;;35.70;21.40;;;;;;4160901;28;20218;-82
2022/04/26 13:41:56;;;;;;;2.63;2.33;;;35.80;21.10;;;;;;4162003;28;20326;-82
2022/04/26 13:43:58;;;;;;;3.33;2.22;;;35.30;21.20;;;;;;4162243;28;20231;-82
2022/04/26 13:46:01;;;;;;;4.55;2.45;;;35.00;21.30;;;;;;4162403;28;22137;-82
2022/04/26 13:48:09;;;;;;;3.92;2.17;;;34.50;21.70;;;;;;4160938;28;20226;-82
2022/04/26 13:50:12;;;;;;;4.63;2.50;;;33.80;21.30;;;;;;4161726;28;20261;-82
2022/04/26 13:52:15;;;;;;;3.83;2.05;;;33.10;21.40;;;;;;4160024;28;20239;-81
2022/04/26 13:54:16;;;;;;;2.55;2.35;;;32.40;21.80;;;;;;4157614;28;20659;-81
2022/04/26 13:56:20;;;;;;;4.03;2.15;;;31.90;22.40;;;;;;4158975;28;20215;-81
2022/04/26 13:58:22;;;;;;;3.65;2.38;;;31.80;22.80;;;;;;4157188;28;20297;-81
2022/04/26 14:00:24;;;;;;;5.78;2.78;;;31.70;23.70;;;;;;4155058;28;20245;-81
2022/04/26 14:02:29;;;;;;;4.53;2.22;;;31.80;23.20;;;;;;4158929;28;20318;-81
2022/04/26 14:04:31;;;;;;;3.50;2.25;;;32.00;23.50;;;;;;4160422;28;20206;-81
2022/04/26 14:06:33;;;;;;;2.97;2.47;;;32.00;23.30;;;;;;4161120;28;20539;-80
2022/04/26 14:08:36;;;;;;;4.18;2.47;;;31.70;23.40;;;;;;4159142;28;20211;-80
2022/04/26 14:10:38;;;;;;;4.03;2.00;;;31.70;23.80;;;;;;4155061;28;20218;-80
2022/04/26 14:12:43;;;;;;;2.58;2.00;;;31.90;22.80;;;;;;4158526;28;20241;-80
2022/04/26 14:21:50;;;;;;;2.03;1.80;;;33.40;23.00;;;;;;4157969;28;20337;-82
2022/04/26 14:23:52;;;;;;;2.50;1.70;;;33.60;22.80;;;;;;4157162;28;20253;-82
2022/04/26 14:25:54;;;;;;;2.15;1.95;;;33.70;22.40;;;;;;4156180;28;20245;-82
2022/04/26 14:27:56;;;;;;;2.40;1.90;;;33.70;22.20;;;;;;4157736;28;20732;-82
2022/04/26 14:30:00;;;;;;;2.75;1.90;;;33.60;22.40;;;;;;4158211;28;20219;-81
2022/04/26 14:32:03;;;;;;;4.18;1.70;;;33.60;22.10;;;;;;4161248;28;20239;-81
2022/04/26 14:34:05;;;;;;;2.08;1.80;;;33.30;21.80;;;;;;4162091;28;20278;-81
2022/04/26 14:36:08;;;;;;;2.50;1.98;;;33.10;22.30;;;;;;4160653;28;20203;-81
2022/04/26 14:38:10;;;;;;;1.90;1.70;;;33.10;22.80;;;;;;4160492;28;20302;-81
2022/04/26 14:40:12;;;;;;;4.47;2.00;;;32.90;22.70;;;;;;4160986;28;20650;-81
2022/04/26 14:42:14;;;;;;;2.90;2.20;;;32.80;22.80;;;;;;4160896;28;20300;-81
2022/04/26 14:44:18;;;;;;;2.63;2.10;;;32.70;22.90;;;;;;4159708;28;20225;-81
2022/04/26 14:46:19;;;;;;;2.30;2.10;;;32.50;23.10;;;;;;4159057;28;20220;-81
2022/04/26 14:48:23;;;;;;;3.47;1.95;;;32.20;23.20;;;;;;4158450;28;20257;-81
2022/04/26 14:50:26;;;;;;;3.38;1.92;;;31.90;23.40;;;;;;4157653;28;20278;-81
2022/04/26 14:52:30;;;;;;;2.95;2.20;;;31.60;23.20;;;;;;4158246;28;20243;-81
2022/04/26 14:54:32;;;;;;;3.55;2.30;;;31.00;23.00;;;;;;4160474;28;20215;-80
2022/04/26 14:56:34;;;;;;;3.45;2.25;;;30.30;23.70;;;;;;4160962;28;20233;-80
2022/04/26 14:58:36;;;;;;;4.47;3.30;;;29.50;24.30;;;;;;4166598;28;21381;-81
2022/04/26 15:00:38;;;;;;;3.78;3.13;;;29.30;25.30;;;;;;4168783;28;20238;-80
2022/04/26 15:02:39;;;;;;;6.38;3.00;;;28.70;25.10;;;;;;4156525;28;20231;-81
2022/04/26 15:04:41;;;;;;;4.28;2.58;;;28.30;25.70;;;;;;4156606;28;20672;-81
2022/04/26 15:06:43;;;;;;;3.38;2.67;;;27.70;26.30;;;;;;4155272;28;20278;-80
2022/04/26 15:11:06;;;;;;;3.28;1.98;;;27.20;27.10;;;;;;4161764;28;20279;-79
2022/04/26 15:17:48;;;;;;;2.97;2.00;;;27.30;26.90;;;;;;4156531;28;20273;-80
2022/04/26 15:19:50;;;;;;;3.35;2.00;;;27.20;26.60;;;;;;4159700;28;20211;-80
2022/04/26 15:21:54;;;;;;;4.75;2.13;;;27.30;27.20;;;;;;4162511;28;20235;-79
2022/04/26 15:23:57;;;;;;;2.00;1.80;;;27.40;27.20;;;;;;4164651;28;20215;-80
2022/04/26 15:25:58;;;;;;;5.28;1.92;;;27.40;27.00;;;;;;4161889;28;20218;-80
2022/04/26 15:28:00;;;;;;;2.63;1.90;;;27.50;27.00;;;;;;4159130;28;20223;-80
2022/04/26 15:30:03;;;;;;;2.80;1.90;;;27.50;26.90;;;;;;4161108;28;20638;-80
2022/04/26 15:32:05;;;;;;;2.77;2.00;;;27.30;26.80;;;;;;4167780;28;20298;-79
2022/04/26 15:34:07;;;;;;;5.00;2.20;;;27.10;27.10;;;;;;4165186;28;20506;-79